Time;durP1;ratioP1;P1;durP2;ratioP2;P2;SDS_P1;SDS_P2;PMS_P1;PMS_P2;Temp;Humidity;BMP_temperature;BMP_pressure;BME280_temperature;BME280_humidity;BME280_pressure;Samples;Min_cycle;Max_cycle;Signal;HPM_P1;HPM_P2
2024/03/19 00:02:05;;;;;;;37.80;10.93;;;;;;;;;;6271280;22;20016;-73
2024/03/19 00:04:31;;;;;;;43.30;13.40;;;;;;;;;;6272764;22;20019;-71
2024/03/19 00:06:57;;;;;;;32.58;10.27;;;;;;;;;;6271888;22;20011;-73
2024/03/19 00:09:24;;;;;;;35.78;11.85;;;;;;;;;;6246048;22;20494;-71
2024/03/19 00:11:49;;;;;;;41.65;11.85;;;;;;;;;;6270182;22;20059;-72
2024/03/19 00:14:15;;;;;;;44.65;11.82;;;;;;;;;;6271711;22;20015;-71
2024/03/19 00:16:41;;;;;;;42.25;12.15;;;;;;;;;;6272949;22;20007;-72
2024/03/19 00:19:08;;;;;;;40.72;13.05;;;;;;;;;;6273983;22;20020;-73
2024/03/19 00:21:33;;;;;;;39.25;12.05;;;;;;;;;;6245930;22;20157;-72
2024/03/19 00:23:59;;;;;;;41.88;11.13;;;;;;;;;;6272324;22;20475;-73
2024/03/19 00:26:26;;;;;;;41.88;12.40;;;;;;;;;;6273069;22;20411;-73
2024/03/19 00:28:52;;;;;;;36.20;11.55;;;;;;;;;;6275239;22;20011;-73
2024/03/19 00:31:20;;;;;;;33.15;11.98;;;;;;;;;;6276986;22;20003;-73
2024/03/19 00:33:48;;;;;;;25.95;11.40;;;;;;;;;;6274673;22;20073;-73
2024/03/19 00:36:13;;;;;;;38.92;14.60;;;;;;;;;;6274561;22;20014;-70
2024/03/19 00:38:39;;;;;;;44.15;12.65;;;;;;;;;;6274304;22;20018;-77
2024/03/19 00:41:06;;;;;;;38.45;11.63;;;;;;;;;;6271795;22;20039;-71
2024/03/19 00:43:31;;;;;;;52.70;13.00;;;;;;;;;;6272221;22;20020;-72
2024/03/19 00:45:57;;;;;;;40.13;11.95;;;;;;;;;;6271124;22;20016;-73
2024/03/19 00:48:24;;;;;;;56.63;13.63;;;;;;;;;;6272970;22;20046;-74
2024/03/19 00:50:50;;;;;;;31.23;11.13;;;;;;;;;;6271465;22;20529;-72
2024/03/19 00:53:16;;;;;;;42.47;11.60;;;;;;;;;;6270696;22;20019;-73
2024/03/19 00:55:42;;;;;;;32.30;11.40;;;;;;;;;;6270416;22;20008;-72
2024/03/19 00:58:08;;;;;;;38.60;13.35;;;;;;;;;;6220943;22;20015;-73
2024/03/19 01:00:35;;;;;;;34.60;12.82;;;;;;;;;;6245832;22;20033;-71
2024/03/19 01:03:01;;;;;;;35.83;11.55;;;;;;;;;;6271577;22;20015;-71
2024/03/19 01:05:27;;;;;;;41.20;11.07;;;;;;;;;;6272860;22;20016;-73
2024/03/19 01:07:53;;;;;;;31.63;12.32;;;;;;;;;;6245180;22;20453;-72
2024/03/19 01:10:19;;;;;;;34.83;11.45;;;;;;;;;;6273263;22;20012;-73
2024/03/19 01:12:44;;;;;;;34.03;12.07;;;;;;;;;;6271693;22;20472;-72
2024/03/19 01:15:10;;;;;;;26.77;11.40;;;;;;;;;;6271334;22;20120;-72
2024/03/19 01:17:36;;;;;;;31.42;12.07;;;;;;;;;;6272742;22;20014;-70
2024/03/19 01:20:09;;;;;;;26.73;11.50;;;;;;;;;;6270830;22;20480;-73
2024/03/19 01:22:37;;;;;;;38.20;10.68;;;;;;;;;;6269923;22;20491;-72
2024/03/19 01:25:06;;;;;;;36.92;11.90;;;;;;;;;;6273035;22;20094;-72
2024/03/19 01:27:35;;;;;;;28.27;12.15;;;;;;;;;;6271013;22;20018;-72
2024/03/19 01:30:01;;;;;;;37.83;11.05;;;;;;;;;;6245130;22;20022;-72
2024/03/19 01:32:32;;;;;;;37.13;11.82;;;;;;;;;;6271654;22;20012;-74
2024/03/19 01:34:58;;;;;;;46.90;14.93;;;;;;;;;;6270605;22;20015;-72
2024/03/19 01:37:24;;;;;;;37.53;14.07;;;;;;;;;;6272988;22;20008;-72
2024/03/19 01:39:52;;;;;;;36.63;15.98;;;;;;;;;;6272170;22;20017;-73
2024/03/19 01:42:21;;;;;;;24.60;10.63;;;;;;;;;;6270044;22;20012;-72
2024/03/19 01:44:46;;;;;;;34.72;13.75;;;;;;;;;;6272259;22;20107;-73
2024/03/19 01:47:12;;;;;;;42.17;13.00;;;;;;;;;;6272497;22;20470;-73
2024/03/19 01:49:38;;;;;;;44.50;11.25;;;;;;;;;;6272639;22;20047;-71
2024/03/19 01:52:05;;;;;;;29.77;13.40;;;;;;;;;;6270155;22;20021;-71
2024/03/19 01:54:31;;;;;;;37.22;11.43;;;;;;;;;;6270858;22;20034;-73
2024/03/19 01:56:57;;;;;;;32.63;12.25;;;;;;;;;;6245092;22;20456;-74
2024/03/19 01:59:24;;;;;;;36.85;12.23;;;;;;;;;;6272362;22;20039;-75
2024/03/19 02:01:49;;;;;;;35.00;13.75;;;;;;;;;;6269756;22;20035;-72
2024/03/19 02:04:15;;;;;;;24.40;11.40;;;;;;;;;;6271363;22;20069;-72
2024/03/19 02:06:41;;;;;;;30.30;14.88;;;;;;;;;;6272263;22;20058;-73
2024/03/19 02:09:13;;;;;;;42.60;15.38;;;;;;;;;;6272283;22;20069;-73
2024/03/19 02:11:40;;;;;;;34.22;12.73;;;;;;;;;;6270473;22;20035;-74
2024/03/19 02:14:07;;;;;;;45.67;16.02;;;;;;;;;;6271102;22;20047;-70
2024/03/19 02:16:33;;;;;;;33.10;12.45;;;;;;;;;;6245287;22;20038;-70
2024/03/19 02:19:01;;;;;;;36.88;12.43;;;;;;;;;;6272978;22;20015;-72
2024/03/19 02:21:27;;;;;;;33.28;11.20;;;;;;;;;;6272449;22;20018;-72
2024/03/19 02:23:55;;;;;;;34.25;11.82;;;;;;;;;;6270809;22;20384;-72
2024/03/19 02:26:21;;;;;;;38.13;14.13;;;;;;;;;;6270452;22;20031;-71
2024/03/19 02:28:47;;;;;;;40.53;14.93;;;;;;;;;;6270185;22;20344;-72
2024/03/19 02:31:13;;;;;;;32.60;13.07;;;;;;;;;;6271476;22;20352;-72
2024/03/19 02:33:39;;;;;;;27.20;12.52;;;;;;;;;;6271352;22;20050;-71
2024/03/19 02:36:05;;;;;;;24.67;12.77;;;;;;;;;;6272134;22;20011;-71
2024/03/19 02:38:31;;;;;;;31.92;14.15;;;;;;;;;;6271836;22;20007;-70
2024/03/19 02:40:57;;;;;;;35.42;12.98;;;;;;;;;;6272326;22;20061;-70
2024/03/19 02:43:23;;;;;;;28.38;13.10;;;;;;;;;;6247054;22;20023;-72
2024/03/19 02:45:49;;;;;;;38.65;14.20;;;;;;;;;;6275888;22;20487;-71
2024/03/19 02:48:18;;;;;;;29.77;11.93;;;;;;;;;;6274901;22;20019;-70
2024/03/19 02:50:47;;;;;;;40.55;12.65;;;;;;;;;;6274475;22;20045;-71
2024/03/19 02:53:13;;;;;;;37.58;13.52;;;;;;;;;;6273050;22;20019;-73
2024/03/19 02:55:39;;;;;;;32.10;13.27;;;;;;;;;;6274075;22;20018;-71
2024/03/19 02:58:04;;;;;;;39.65;14.07;;;;;;;;;;6274549;22;20077;-73
2024/03/19 03:00:30;;;;;;;33.20;12.75;;;;;;;;;;6274293;22;20007;-70
2024/03/19 03:02:56;;;;;;;47.42;14.23;;;;;;;;;;6272834;22;20028;-72
2024/03/19 03:05:22;;;;;;;35.47;15.90;;;;;;;;;;6271821;22;20051;-72
2024/03/19 03:07:48;;;;;;;26.63;12.77;;;;;;;;;;6274198;22;20085;-72
2024/03/19 03:10:13;;;;;;;34.10;12.52;;;;;;;;;;6272304;22;20012;-73
2024/03/19 03:12:39;;;;;;;39.63;14.13;;;;;;;;;;6272711;22;20015;-72
2024/03/19 03:15:05;;;;;;;33.33;12.77;;;;;;;;;;6272490;22;20019;-74
2024/03/19 03:17:31;;;;;;;35.53;15.30;;;;;;;;;;6272623;22;20011;-74
2024/03/19 03:19:58;;;;;;;39.78;13.73;;;;;;;;;;6273586;22;20091;-72
2024/03/19 03:22:24;;;;;;;31.05;13.30;;;;;;;;;;6246346;22;20427;-73
2024/03/19 03:24:50;;;;;;;31.27;13.65;;;;;;;;;;6273006;22;20047;-73
2024/03/19 03:27:17;;;;;;;28.63;13.60;;;;;;;;;;6272992;22;20086;-73
2024/03/19 03:29:43;;;;;;;33.83;13.00;;;;;;;;;;6272366;22;20011;-73
2024/03/19 03:32:09;;;;;;;31.25;12.95;;;;;;;;;;6270788;22;20558;-75
2024/03/19 03:34:35;;;;;;;32.38;12.73;;;;;;;;;;6274006;22;20046;-73
2024/03/19 03:37:02;;;;;;;23.77;11.98;;;;;;;;;;6270953;22;20026;-74
2024/03/19 03:39:27;;;;;;;27.35;13.55;;;;;;;;;;6271995;22;20043;-74
2024/03/19 03:41:53;;;;;;;32.60;13.18;;;;;;;;;;6271816;22;20008;-74
2024/03/19 03:44:20;;;;;;;26.98;11.48;;;;;;;;;;6272898;22;20570;-73
2024/03/19 03:46:45;;;;;;;31.00;14.10;;;;;;;;;;6271735;22;20008;-73
2024/03/19 03:49:11;;;;;;;29.15;12.77;;;;;;;;;;6271185;22;20021;-74
2024/03/19 03:51:37;;;;;;;24.00;11.23;;;;;;;;;;6269456;22;20091;-73
2024/03/19 03:54:03;;;;;;;31.35;12.07;;;;;;;;;;6271971;22;20020;-73
2024/03/19 03:56:29;;;;;;;32.35;12.70;;;;;;;;;;6273318;22;20007;-74
2024/03/19 03:58:55;;;;;;;28.83;12.65;;;;;;;;;;6247036;22;20077;-73
2024/03/19 04:01:21;;;;;;;31.20;12.68;;;;;;;;;;6273527;22;20592;-74
2024/03/19 04:03:49;;;;;;;30.58;12.60;;;;;;;;;;6272621;22;20028;-74
2024/03/19 04:06:16;;;;;;;27.23;12.65;;;;;;;;;;6272828;22;20103;-73
2024/03/19 04:08:42;;;;;;;33.13;15.95;;;;;;;;;;6271565;22;20483;-73
2024/03/19 04:11:09;;;;;;;27.27;12.23;;;;;;;;;;6272013;22;20011;-73
2024/03/19 04:13:36;;;;;;;26.73;12.02;;;;;;;;;;6272467;22;20030;-72
2024/03/19 04:16:02;;;;;;;23.70;12.60;;;;;;;;;;6273028;22;20011;-73
2024/03/19 04:18:28;;;;;;;26.15;13.73;;;;;;;;;;6271645;22;20391;-74
2024/03/19 04:20:54;;;;;;;27.88;11.55;;;;;;;;;;6271131;22;20064;-73
2024/03/19 04:23:20;;;;;;;33.20;14.65;;;;;;;;;;6271905;22;20050;-74
2024/03/19 04:25:45;;;;;;;32.92;12.95;;;;;;;;;;6272936;22;20020;-73
2024/03/19 04:28:11;;;;;;;35.38;14.07;;;;;;;;;;6273253;22;20011;-73
2024/03/19 04:30:37;;;;;;;28.27;13.38;;;;;;;;;;6271750;22;20020;-73
2024/03/19 04:33:03;;;;;;;23.33;13.15;;;;;;;;;;6269533;22;20043;-74
2024/03/19 04:35:29;;;;;;;32.65;14.68;;;;;;;;;;6220902;22;20118;-76
2024/03/19 04:37:55;;;;;;;28.95;13.32;;;;;;;;;;6271744;22;20468;-73
2024/03/19 04:40:21;;;;;;;33.70;13.80;;;;;;;;;;6274382;22;20019;-74
2024/03/19 04:42:47;;;;;;;35.30;15.20;;;;;;;;;;6272303;22;20095;-72
2024/03/19 04:45:13;;;;;;;36.85;13.63;;;;;;;;;;6271816;22;20024;-73
2024/03/19 04:47:39;;;;;;;41.40;17.20;;;;;;;;;;6271150;22;20078;-73
2024/03/19 04:50:05;;;;;;;35.67;15.50;;;;;;;;;;6271192;22;20096;-74
2024/03/19 04:52:31;;;;;;;31.02;13.48;;;;;;;;;;6270438;22;20016;-72
2024/03/19 04:54:56;;;;;;;31.42;11.43;;;;;;;;;;6271239;22;20016;-72
2024/03/19 04:57:22;;;;;;;43.97;15.82;;;;;;;;;;6273835;22;20325;-72
2024/03/19 04:59:48;;;;;;;30.42;12.85;;;;;;;;;;6271658;22;20016;-72
2024/03/19 05:02:14;;;;;;;25.05;11.73;;;;;;;;;;6265814;22;20049;-72
2024/03/19 05:04:40;;;;;;;28.58;11.00;;;;;;;;;;6270546;22;20019;-72
2024/03/19 05:07:07;;;;;;;26.10;11.95;;;;;;;;;;6269257;22;20039;-73
2024/03/19 05:09:33;;;;;;;29.38;12.43;;;;;;;;;;6272135;22;20110;-70
2024/03/19 05:11:58;;;;;;;20.88;10.65;;;;;;;;;;6269981;22;20061;-72
2024/03/19 05:14:24;;;;;;;32.05;12.43;;;;;;;;;;6270273;22;20427;-72
2024/03/19 05:16:50;;;;;;;30.35;14.20;;;;;;;;;;6270331;22;20544;-72
2024/03/19 05:19:16;;;;;;;28.15;12.68;;;;;;;;;;6271249;22;20015;-70
2024/03/19 05:21:42;;;;;;;34.00;12.13;;;;;;;;;;6269880;22;20098;-71
2024/03/19 05:24:08;;;;;;;26.30;12.82;;;;;;;;;;6062271;22;20031;-72
2024/03/19 05:26:33;;;;;;;29.58;11.32;;;;;;;;;;6089390;23;20632;-73
2024/03/19 05:28:59;;;;;;;30.88;12.57;;;;;;;;;;6064222;23;20018;-72
2024/03/19 05:31:26;;;;;;;42.88;15.55;;;;;;;;;;6090832;23;20101;-72
2024/03/19 05:33:52;;;;;;;29.52;11.70;;;;;;;;;;6249543;22;20023;-71
2024/03/19 05:36:18;;;;;;;26.77;12.85;;;;;;;;;;6271079;22;20008;-72
2024/03/19 05:38:44;;;;;;;23.52;13.25;;;;;;;;;;6268311;22;20659;-73
2024/03/19 05:41:10;;;;;;;39.42;12.25;;;;;;;;;;6269678;22;20007;-72
2024/03/19 05:43:36;;;;;;;29.08;16.77;;;;;;;;;;6270478;22;20031;-74
2024/03/19 05:46:02;;;;;;;19.88;10.85;;;;;;;;;;6269449;22;20482;-73
2024/03/19 05:48:33;;;;;;;30.60;13.07;;;;;;;;;;6271494;22;20069;-73
2024/03/19 05:51:01;;;;;;;37.30;13.95;;;;;;;;;;6271304;22;20012;-73
2024/03/19 05:53:26;;;;;;;30.23;12.00;;;;;;;;;;6268579;22;20030;-75
2024/03/19 05:55:52;;;;;;;25.38;11.90;;;;;;;;;;6269774;22;20090;-73
2024/03/19 05:58:18;;;;;;;31.58;11.27;;;;;;;;;;6270992;22;20069;-73
2024/03/19 06:00:44;;;;;;;20.25;10.82;;;;;;;;;;6269708;22;20012;-73
2024/03/19 06:03:10;;;;;;;35.58;11.55;;;;;;;;;;6268621;22;20444;-74
2024/03/19 06:05:36;;;;;;;18.23;9.90;;;;;;;;;;6270431;22;20511;-73
2024/03/19 06:08:02;;;;;;;20.95;10.45;;;;;;;;;;6271102;22;20031;-74
2024/03/19 06:10:28;;;;;;;35.45;13.18;;;;;;;;;;6271090;22;20015;-74
2024/03/19 06:12:54;;;;;;;28.40;14.02;;;;;;;;;;6217880;22;20023;-74
2024/03/19 06:15:22;;;;;;;26.85;11.68;;;;;;;;;;6270108;22;20016;-71
2024/03/19 06:17:48;;;;;;;23.67;14.75;;;;;;;;;;6271120;22;20089;-72
2024/03/19 06:20:17;;;;;;;19.13;10.25;;;;;;;;;;6269091;22;20015;-74
2024/03/19 06:22:44;;;;;;;24.05;9.98;;;;;;;;;;6268550;22;20020;-71
2024/03/19 06:25:10;;;;;;;23.02;9.60;;;;;;;;;;6242736;22;20145;-71
2024/03/19 06:27:36;;;;;;;28.33;10.85;;;;;;;;;;6268897;22;20107;-71
2024/03/19 06:30:02;;;;;;;20.98;9.82;;;;;;;;;;6270900;22;20011;-72
2024/03/19 06:32:30;;;;;;;29.05;13.18;;;;;;;;;;6270121;22;20016;-72
2024/03/19 06:34:56;;;;;;;25.80;11.48;;;;;;;;;;6270596;22;20012;-73
2024/03/19 06:37:21;;;;;;;27.05;10.10;;;;;;;;;;6270659;22;20031;-73
2024/03/19 06:39:47;;;;;;;37.03;10.98;;;;;;;;;;6270709;22;20023;-72
2024/03/19 06:42:13;;;;;;;24.48;10.85;;;;;;;;;;6269852;22;20018;-74
2024/03/19 06:44:39;;;;;;;26.67;10.13;;;;;;;;;;6243506;22;20337;-72
2024/03/19 06:47:05;;;;;;;24.02;11.00;;;;;;;;;;6270247;22;20087;-74
2024/03/19 06:49:31;;;;;;;6.63;5.18;;;;;;;;;;6270834;22;20363;-73
2024/03/19 06:51:57;;;;;;;20.80;10.30;;;;;;;;;;6293041;22;20011;-73
2024/03/19 06:54:23;;;;;;;27.90;9.98;;;;;;;;;;6244173;22;20016;-71
2024/03/19 06:56:49;;;;;;;16.50;8.90;;;;;;;;;;6243547;22;20087;-72
2024/03/19 06:59:18;;;;;;;25.20;10.05;;;;;;;;;;6270095;22;20046;-72
2024/03/19 07:01:44;;;;;;;27.30;13.15;;;;;;;;;;6268182;22;20014;-72
2024/03/19 07:04:10;;;;;;;17.67;10.25;;;;;;;;;;6268681;22;20110;-71
2024/03/19 07:06:36;;;;;;;19.83;9.45;;;;;;;;;;6243161;22;20007;-72
2024/03/19 07:09:02;;;;;;;27.17;11.23;;;;;;;;;;6270671;22;20041;-72
2024/03/19 07:11:28;;;;;;;36.50;13.18;;;;;;;;;;6243698;22;20083;-73
2024/03/19 07:13:54;;;;;;;26.63;13.60;;;;;;;;;;6242999;22;20085;-72
2024/03/19 07:16:20;;;;;;;26.17;10.07;;;;;;;;;;6268853;22;20069;-72
2024/03/19 07:18:46;;;;;;;21.65;10.35;;;;;;;;;;6243384;22;20028;-72
2024/03/19 07:21:12;;;;;;;26.60;9.77;;;;;;;;;;6270006;22;20069;-74
2024/03/19 07:23:38;;;;;;;27.20;9.77;;;;;;;;;;6243359;22;20344;-72
2024/03/19 07:26:04;;;;;;;28.40;11.05;;;;;;;;;;6270363;22;20047;-73
2024/03/19 07:28:30;;;;;;;25.55;10.50;;;;;;;;;;6270198;22;20016;-72
2024/03/19 07:30:57;;;;;;;27.17;11.00;;;;;;;;;;6272332;22;20088;-74
2024/03/19 07:33:23;;;;;;;39.58;14.38;;;;;;;;;;6272886;22;20108;-74
2024/03/19 07:35:49;;;;;;;24.60;10.93;;;;;;;;;;6271932;22;20004;-75
2024/03/19 07:38:15;;;;;;;25.30;10.35;;;;;;;;;;6246655;22;20039;-72
2024/03/19 07:40:41;;;;;;;26.02;10.00;;;;;;;;;;6271653;22;20007;-73
2024/03/19 07:43:07;;;;;;;29.98;10.52;;;;;;;;;;6270995;22;20024;-74
2024/03/19 07:45:33;;;;;;;23.20;9.75;;;;;;;;;;6277313;22;20015;-72
2024/03/19 07:48:04;;;;;;;20.17;9.27;;;;;;;;;;6273244;22;20012;-74
2024/03/19 07:50:33;;;;;;;14.32;7.50;;;;;;;;;;6274461;22;20098;-73
2024/03/19 07:52:58;;;;;;;13.75;8.38;;;;;;;;;;6274039;22;20011;-75
2024/03/19 07:55:24;;;;;;;16.02;8.85;;;;;;;;;;6304041;22;20061;-72
2024/03/19 07:57:50;;;;;;;24.70;11.52;;;;;;;;;;6277532;22;20011;-73
2024/03/19 08:00:16;;;;;;;32.20;11.90;;;;;;;;;;6273069;22;20039;-73
2024/03/19 08:02:43;;;;;;;28.77;10.88;;;;;;;;;;6273071;22;20422;-74
2024/03/19 08:05:09;;;;;;;27.08;11.02;;;;;;;;;;6271952;22;20164;-73
2024/03/19 08:07:40;;;;;;;21.10;11.18;;;;;;;;;;6271914;22;20020;-74
2024/03/19 08:10:06;;;;;;;33.28;12.75;;;;;;;;;;6297339;22;20020;-73
2024/03/19 08:12:35;;;;;;;25.58;11.43;;;;;;;;;;6270834;22;20012;-72
2024/03/19 08:15:02;;;;;;;26.63;13.48;;;;;;;;;;6273553;22;20098;-74
2024/03/19 08:17:32;;;;;;;27.13;13.23;;;;;;;;;;6246929;22;20094;-73
2024/03/19 08:19:58;;;;;;;26.27;14.45;;;;;;;;;;6271610;22;20042;-73
2024/03/19 08:22:24;;;;;;;16.85;9.35;;;;;;;;;;6271915;22;20022;-73
2024/03/19 08:24:52;;;;;;;20.30;11.20;;;;;;;;;;6273515;22;20020;-73
2024/03/19 08:27:18;;;;;;;25.77;11.25;;;;;;;;;;6273524;22;20496;-73
2024/03/19 08:29:43;;;;;;;15.02;10.43;;;;;;;;;;6272899;22;20035;-73
2024/03/19 08:32:09;;;;;;;23.10;11.40;;;;;;;;;;6272029;22;20333;-73
2024/03/19 08:34:35;;;;;;;31.65;11.65;;;;;;;;;;6271366;22;20019;-73
2024/03/19 08:37:02;;;;;;;38.95;14.35;;;;;;;;;;6270648;22;20083;-73
2024/03/19 08:39:28;;;;;;;22.73;11.27;;;;;;;;;;6273061;22;20015;-73
2024/03/19 08:41:54;;;;;;;18.60;10.77;;;;;;;;;;6270270;22;20019;-72
2024/03/19 08:44:22;;;;;;;21.13;11.10;;;;;;;;;;6219936;22;20020;-74
2024/03/19 08:46:48;;;;;;;20.65;8.00;;;;;;;;;;6245574;22;20015;-74
2024/03/19 08:49:16;;;;;;;29.52;10.80;;;;;;;;;;6272635;22;20087;-74
2024/03/19 08:51:42;;;;;;;21.17;10.85;;;;;;;;;;6272238;22;20057;-73
2024/03/19 08:54:09;;;;;;;23.25;11.35;;;;;;;;;;6245999;22;20069;-73
2024/03/19 08:56:36;;;;;;;21.95;9.77;;;;;;;;;;6271879;22;20482;-73
2024/03/19 08:59:03;;;;;;;18.15;9.63;;;;;;;;;;6271506;22;20332;-74
2024/03/19 09:01:29;;;;;;;25.38;11.43;;;;;;;;;;6272080;22;20007;-73
2024/03/19 09:03:55;;;;;;;23.13;11.02;;;;;;;;;;6270708;22;20532;-73
2024/03/19 09:06:21;;;;;;;26.88;11.93;;;;;;;;;;6271297;22;20027;-73
2024/03/19 09:08:47;;;;;;;22.77;11.73;;;;;;;;;;6273170;22;20073;-74
2024/03/19 09:11:16;;;;;;;35.83;14.95;;;;;;;;;;6272941;22;20449;-74
2024/03/19 09:13:42;;;;;;;24.25;11.20;;;;;;;;;;6272379;22;20069;-73
2024/03/19 09:16:09;;;;;;;22.33;13.00;;;;;;;;;;6271391;22;20076;-72
2024/03/19 09:18:34;;;;;;;22.45;11.70;;;;;;;;;;6246409;22;20004;-74
2024/03/19 09:21:00;;;;;;;25.50;11.63;;;;;;;;;;6271604;22;20110;-71
2024/03/19 09:23:26;;;;;;;34.72;12.43;;;;;;;;;;6277610;22;20019;-70
2024/03/19 09:25:53;;;;;;;24.08;10.45;;;;;;;;;;6272122;22;20411;-71
2024/03/19 09:28:19;;;;;;;25.35;11.23;;;;;;;;;;6273442;22;20126;-70
2024/03/19 09:31:04;;;;;;;17.00;9.57;;;;;;;;;;6272936;22;20038;-71
2024/03/19 09:33:30;;;;;;;19.55;10.13;;;;;;;;;;6270024;22;20473;-71
2024/03/19 09:35:56;;;;;;;23.95;11.27;;;;;;;;;;6272356;22;20050;-72
2024/03/19 09:38:22;;;;;;;19.45;10.52;;;;;;;;;;6272147;22;20031;-71
2024/03/19 09:41:02;;;;;;;25.25;11.40;;;;;;;;;;6272283;22;20012;-72
2024/03/19 09:43:30;;;;;;;29.77;9.87;;;;;;;;;;6269926;22;20023;-73
2024/03/19 09:45:55;;;;;;;26.33;9.15;;;;;;;;;;6245864;22;20534;-76
2024/03/19 09:48:21;;;;;;;26.60;10.55;;;;;;;;;;6270834;22;20008;-75
2024/03/19 09:50:48;;;;;;;18.52;8.70;;;;;;;;;;6271121;22;20456;-76
2024/03/19 09:53:16;;;;;;;15.50;8.73;;;;;;;;;;6161826;23;20577;-77
2024/03/19 09:55:42;;;;;;;24.17;9.23;;;;;;;;;;6119551;23;20100;-77
2024/03/19 09:58:09;;;;;;;20.50;10.02;;;;;;;;;;6117803;23;20064;-78
2024/03/19 10:00:35;;;;;;;23.42;9.27;;;;;;;;;;6118413;23;20029;-78
2024/03/19 10:03:03;;;;;;;25.38;8.88;;;;;;;;;;6201838;22;20019;-73
2024/03/19 10:05:29;;;;;;;28.15;9.63;;;;;;;;;;6270552;22;20168;-72
2024/03/19 10:07:55;;;;;;;19.45;10.05;;;;;;;;;;6272431;22;20023;-76
2024/03/19 10:10:21;;;;;;;25.95;9.52;;;;;;;;;;6270508;22;20015;-76
2024/03/19 10:12:47;;;;;;;19.65;7.25;;;;;;;;;;6295252;22;20095;-73
2024/03/19 10:15:17;;;;;;;36.58;11.40;;;;;;;;;;6270219;22;20043;-74
2024/03/19 10:17:42;;;;;;;23.58;10.77;;;;;;;;;;6272074;22;20529;-73
2024/03/19 10:20:11;;;;;;;16.70;8.02;;;;;;;;;;6272466;22;20363;-74
2024/03/19 10:22:38;;;;;;;36.85;13.07;;;;;;;;;;6270000;22;20020;-72
2024/03/19 10:25:05;;;;;;;30.25;10.00;;;;;;;;;;6220303;22;20027;-74
2024/03/19 10:27:31;;;;;;;18.52;7.43;;;;;;;;;;6271284;22;20018;-75
2024/03/19 10:29:58;;;;;;;21.20;8.10;;;;;;;;;;6274885;22;20011;-74
2024/03/19 10:32:24;;;;;;;27.92;8.27;;;;;;;;;;6273573;22;20102;-76
2024/03/19 10:34:50;;;;;;;30.33;11.73;;;;;;;;;;6247329;22;20090;-75
2024/03/19 10:37:18;;;;;;;37.60;8.98;;;;;;;;;;6272104;22;20102;-75
2024/03/19 10:39:45;;;;;;;23.35;8.00;;;;;;;;;;6270505;22;20098;-74
2024/03/19 10:42:11;;;;;;;18.38;9.30;;;;;;;;;;6269419;22;20062;-74
2024/03/19 10:44:38;;;;;;;23.95;8.43;;;;;;;;;;6296551;22;20349;-74
2024/03/19 10:47:22;;;;;;;19.83;8.38;;;;;;;;;;6270950;22;20012;-74
2024/03/19 10:49:49;;;;;;;20.38;10.15;;;;;;;;;;6270850;22;20098;-71
2024/03/19 10:52:20;;;;;;;21.17;8.73;;;;;;;;;;6270247;22;20019;-73
2024/03/19 10:54:46;;;;;;;24.38;9.13;;;;;;;;;;6270431;22;20015;-73
2024/03/19 10:57:16;;;;;;;27.88;8.77;;;;;;;;;;6271341;22;20012;-73
2024/03/19 10:59:42;;;;;;;31.95;9.02;;;;;;;;;;6244887;22;20451;-73
2024/03/19 11:02:09;;;;;;;25.13;9.93;;;;;;;;;;6271248;22;20023;-73
2024/03/19 11:04:36;;;;;;;27.15;9.45;;;;;;;;;;6271802;22;20156;-74
2024/03/19 11:07:02;;;;;;;25.52;8.38;;;;;;;;;;6271799;22;20045;-74
2024/03/19 11:09:29;;;;;;;34.55;10.38;;;;;;;;;;6246680;22;20325;-71
2024/03/19 11:12:01;;;;;;;17.85;8.15;;;;;;;;;;6272809;22;20054;-71
2024/03/19 11:14:28;;;;;;;25.05;9.90;;;;;;;;;;6246726;22;20016;-73
2024/03/19 11:16:54;;;;;;;15.48;6.88;;;;;;;;;;6247239;22;20054;-73
2024/03/19 11:19:24;;;;;;;30.33;9.20;;;;;;;;;;6273589;22;20035;-73
2024/03/19 11:21:53;;;;;;;26.98;9.40;;;;;;;;;;6272356;22;20007;-74
2024/03/19 11:24:22;;;;;;;31.73;10.15;;;;;;;;;;6273471;22;20020;-73
2024/03/19 11:26:51;;;;;;;21.40;8.13;;;;;;;;;;6246201;22;20011;-73
2024/03/19 11:29:17;;;;;;;19.73;9.98;;;;;;;;;;6271807;22;20140;-73
2024/03/19 11:31:44;;;;;;;25.33;10.82;;;;;;;;;;6220335;22;20444;-74
2024/03/19 11:34:14;;;;;;;19.95;10.57;;;;;;;;;;6274737;22;20014;-74
2024/03/19 11:37:01;;;;;;;22.67;10.57;;;;;;;;;;6196311;22;20031;-74
2024/03/19 11:39:37;;;;;;;23.67;11.98;;;;;;;;;;6271958;22;20016;-74
2024/03/19 11:42:07;;;;;;;20.52;10.93;;;;;;;;;;6267028;22;20011;-72
2024/03/19 11:44:33;;;;;;;25.85;11.10;;;;;;;;;;6271775;22;20019;-74
2024/03/19 11:47:04;;;;;;;29.80;12.48;;;;;;;;;;6273359;22;20073;-73
2024/03/19 11:49:35;;;;;;;19.45;9.20;;;;;;;;;;6194807;22;20012;-74
2024/03/19 11:52:06;;;;;;;17.85;9.95;;;;;;;;;;6259895;22;20021;-72
2024/03/19 11:54:46;;;;;;;30.85;10.52;;;;;;;;;;6246921;22;20042;-72
2024/03/19 11:57:15;;;;;;;24.25;11.63;;;;;;;;;;6221885;22;20012;-72
2024/03/19 11:59:41;;;;;;;22.17;10.23;;;;;;;;;;6221359;22;20018;-75
2024/03/19 12:02:07;;;;;;;21.40;9.55;;;;;;;;;;6194050;22;20039;-72
2024/03/19 12:04:38;;;;;;;26.80;9.07;;;;;;;;;;6246223;22;20019;-74
2024/03/19 12:07:04;;;;;;;25.52;8.48;;;;;;;;;;6196911;22;20014;-73
2024/03/19 12:09:32;;;;;;;21.30;9.32;;;;;;;;;;6195981;22;20019;-73
2024/03/19 12:11:59;;;;;;;28.20;9.60;;;;;;;;;;6194500;22;20007;-73
2024/03/19 12:14:26;;;;;;;33.17;8.73;;;;;;;;;;6210841;22;20456;-74
2024/03/19 12:16:53;;;;;;;23.15;9.88;;;;;;;;;;6196903;22;20008;-74
2024/03/19 12:19:22;;;;;;;18.67;9.10;;;;;;;;;;6221843;22;20012;-73
2024/03/19 12:21:49;;;;;;;33.75;9.43;;;;;;;;;;6271844;22;20011;-73
2024/03/19 12:24:15;;;;;;;28.80;9.35;;;;;;;;;;6197352;22;20020;-75
2024/03/19 12:26:44;;;;;;;16.77;9.13;;;;;;;;;;6226789;22;20725;-72
2024/03/19 12:29:14;;;;;;;24.85;9.20;;;;;;;;;;6280764;22;20021;-75
2024/03/19 12:37:18;;;;;;;20.10;9.57;;;;;;;;;;6271593;22;20012;-75
2024/03/19 12:40:01;;;;;;;17.63;9.20;;;;;;;;;;6206727;22;20078;-73
2024/03/19 12:42:43;;;;;;;33.42;9.35;;;;;;;;;;6225057;22;20016;-74
2024/03/19 12:45:12;;;;;;;18.92;7.63;;;;;;;;;;6195909;22;20094;-73
2024/03/19 12:47:38;;;;;;;16.38;8.73;;;;;;;;;;6220968;22;20007;-74
2024/03/19 12:50:04;;;;;;;21.40;9.32;;;;;;;;;;6196165;22;20042;-74
2024/03/19 12:55:18;;;;;;;19.65;7.07;;;;;;;;;;6272477;22;20061;-76
2024/03/19 12:57:44;;;;;;;19.70;9.35;;;;;;;;;;6196860;22;20086;-75
2024/03/19 13:00:11;;;;;;;19.63;9.30;;;;;;;;;;6220660;22;20012;-74
2024/03/19 13:02:45;;;;;;;17.50;8.38;;;;;;;;;;6219309;22;20022;-74
2024/03/19 13:05:16;;;;;;;22.90;7.68;;;;;;;;;;6220319;22;20020;-72
2024/03/19 13:08:04;;;;;;;20.45;7.65;;;;;;;;;;6271094;22;20058;-73
2024/03/19 13:10:34;;;;;;;24.05;7.82;;;;;;;;;;6197433;22;20011;-76
2024/03/19 13:13:00;;;;;;;17.83;7.07;;;;;;;;;;6244331;22;20023;-75
2024/03/19 13:15:47;;;;;;;20.10;8.05;;;;;;;;;;6223068;22;20007;-74
2024/03/19 13:18:13;;;;;;;22.70;7.22;;;;;;;;;;6245698;22;20095;-78
2024/03/19 13:20:39;;;;;;;14.55;8.50;;;;;;;;;;6194665;22;20046;-74
2024/03/19 13:23:08;;;;;;;24.30;7.88;;;;;;;;;;6243399;22;20045;-74
2024/03/19 13:25:36;;;;;;;19.83;8.38;;;;;;;;;;6245082;22;20519;-75
2024/03/19 13:28:02;;;;;;;20.35;8.70;;;;;;;;;;6195075;22;20034;-73
2024/03/19 13:30:29;;;;;;;18.65;7.60;;;;;;;;;;6219919;22;20012;-74
2024/03/19 13:33:00;;;;;;;20.50;7.30;;;;;;;;;;6219075;22;20016;-75
2024/03/19 13:35:26;;;;;;;17.05;7.18;;;;;;;;;;6221185;22;20015;-76
2024/03/19 13:37:52;;;;;;;20.88;7.45;;;;;;;;;;6245602;22;20015;-74
2024/03/19 13:41:02;;;;;;;26.27;8.30;;;;;;;;;;6254470;22;20017;-74
2024/03/19 13:43:30;;;;;;;13.98;7.65;;;;;;;;;;6219209;22;20016;-75
2024/03/19 13:46:06;;;;;;;19.92;7.72;;;;;;;;;;6195403;22;20105;-75
2024/03/19 13:48:39;;;;;;;17.45;7.57;;;;;;;;;;6270933;22;20016;-75
2024/03/19 13:51:06;;;;;;;10.85;6.13;;;;;;;;;;6245789;22;20012;-79
2024/03/19 13:53:32;;;;;;;25.65;6.68;;;;;;;;;;6163092;22;20359;-76
2024/03/19 13:56:05;;;;;;;18.63;8.25;;;;;;;;;;6063308;23;20018;-74
2024/03/19 13:58:32;;;;;;;17.83;8.25;;;;;;;;;;6062610;23;20071;-75
2024/03/19 14:01:06;;;;;;;15.98;7.88;;;;;;;;;;6087757;23;20066;-77
2024/03/19 14:03:41;;;;;;;29.42;8.02;;;;;;;;;;6063189;23;20030;-76
2024/03/19 14:06:09;;;;;;;18.13;6.65;;;;;;;;;;6087056;23;20010;-74
2024/03/19 14:08:36;;;;;;;17.60;6.93;;;;;;;;;;6062300;23;20030;-72
2024/03/19 14:11:01;;;;;;;22.65;6.85;;;;;;;;;;6063306;23;20097;-72
2024/03/19 14:13:28;;;;;;;18.63;8.18;;;;;;;;;;6176892;23;20035;-74
2024/03/19 14:15:57;;;;;;;15.27;7.20;;;;;;;;;;6189303;23;20404;-76
2024/03/19 14:18:26;;;;;;;12.50;6.63;;;;;;;;;;6163627;23;20018;-75
2024/03/19 14:21:11;;;;;;;15.57;6.57;;;;;;;;;;6218392;23;20016;-75
2024/03/19 14:23:39;;;;;;;8.85;6.60;;;;;;;;;;6055366;23;20538;-76
2024/03/19 14:26:33;;;;;;;16.67;6.80;;;;;;;;;;6104886;23;20112;-75
2024/03/19 14:28:59;;;;;;;13.68;6.07;;;;;;;;;;6038946;23;20105;-74
2024/03/19 14:31:28;;;;;;;18.25;7.10;;;;;;;;;;6038298;23;20010;-75